Date,TemperatureHighF,TemperatureAvgF,TemperatureLowF,DewpointHighF,DewpointAvgF,DewpointLowF,HumidityHigh,HumidityAvg,HumidityLow,PressureMaxIn,PressureMinIn,WindSpeedMaxMPH,WindSpeedAvgMPH,GustSpeedMaxMPH,PrecipitationSumIn
2013-5-1,81.3,70.2,55.8,60.2,54.0,47.2,88,59,34,30.03,29.89,14,1,17,0.00
2013-5-2,76.6,64.7,46.9,61.0,56.8,44.5,92,77,55,30.08,29.99,15,1,16,0.28
2013-5-3,55.1,48.3,45.9,53.4,46.8,44.4,96,95,92,30.02,29.72,14,0,14,1.44
2013-5-4,46.7,44.6,42.2,44.8,43.0,40.9,96,94,92,29.98,29.80,10,0,12,0.32
2013-5-5,58.8,51.8,45.7,55.1,50.2,44.3,96,94,82,29.96,29.84,12,0,16,0.14
2013-5-6,66.2,59.4,52.8,57.5,53.4,50.5,93,81,66,29.92,29.85,13,1,14,0.00
2013-5-7,76.9,65.8,57.1,57.6,54.6,46.6,95,70,36,29.97,29.91,12,1,12,0.00
2013-5-8,80.1,61.4,52.5,57.7,51.7,43.9,92,74,29,29.98,29.90,2,0,9,0.00
2013-5-9,69.3,64.6,59.4,64.4,59.5,55.8,95,84,73,29.92,29.77,12,0,15,0.95
2013-5-10,67.2,59.2,52.1,59.0,54.0,48.3,93,83,68,29.94,29.77,16,2,17,0.00
2013-5-11,66.2,57.0,47.3,53.4,43.7,31.4,92,64,31,30.09,29.90,24,2,24,0.00
2013-5-12,58.8,49.6,38.4,36.7,31.5,26.0,79,52,29,30.17,30.08,18,1,18,0.00
2013-5-13,69.2,61.5,38.6,42.0,34.8,25.3,85,40,24,30.17,29.98,12,0,12,0.00
2013-5-14,89.8,72.1,54.4,58.6,50.7,41.8,69,49,28,29.98,29.71,16,1,17,0.00
2013-5-15,88.7,77.4,69.7,63.5,56.4,48.5,71,49,36,29.85,29.74,12,1,15,0.00
2013-5-16,79.1,72.2,62.3,65.4,60.8,56.5,87,68,51,29.89,29.75,16,1,17,0.00
2013-5-17,76.7,67.9,60.8,67.0,61.4,57.2,92,80,60,29.92,29.86,13,0,19,0.34
2013-5-18,79.1,70.5,60.9,64.6,62.4,58.9,95,77,58,29.96,29.84,11,0,11,0.01
2013-5-19,86.4,75.0,64.4,72.7,66.8,62.0,93,77,58,29.86,29.66,19,1,21,0.00
2013-5-20,81.7,73.6,62.2,68.2,64.0,57.7,94,73,55,29.85,29.64,21,2,24,0.66
2013-5-21,78.9,69.7,62.0,66.5,62.7,60.2,97,80,56,29.81,29.64,19,1,19,0.22
2013-5-22,75.0,67.9,62.8,62.8,57.5,52.6,90,71,47,29.78,29.60,16,0,16,0.00
2013-5-23,63.0,59.1,51.8,58.5,52.5,47.4,92,79,69,30.20,29.78,18,1,18,0.08
2013-5-24,67.3,55.5,43.1,47.4,40.0,34.5,91,59,31,30.36,30.21,12,1,13,0.00
2013-5-25,65.5,56.4,47.3,53.8,48.1,42.9,89,74,58,30.32,30.12,11,0,11,0.03
2013-5-26,71.4,63.6,53.8,60.6,54.4,46.9,80,72,63,30.17,29.96,14,1,16,0.00
2013-5-27,80.6,69.6,63.7,68.4,62.6,57.7,95,79,60,29.99,29.69,22,1,22,0.85
2013-5-28,82.3,73.2,63.8,68.9,64.6,61.0,91,75,58,29.86,29.72,29,2,29,0.10
2013-5-29,84.2,75.5,64.9,68.2,63.3,58.2,81,67,51,29.91,29.78,18,2,22,0.00
2013-5-30,80.8,74.6,65.7,69.3,65.8,62.2,92,74,62,29.86,29.74,39,3,39,0.40
2013-5-31,77.1,72.5,62.8,70.7,67.4,61.0,95,84,71,29.84,29.69,20,2,20,0.93